sensor_id;sensor_type;location;lat;lon;timestamp;P1;durP1;ratioP1;P2;durP2;ratioP2
17604;SDS011;8921;50.964;6.800;2023-05-07T00:02:19;10.80;;;7.87;;
17604;SDS011;8921;50.964;6.800;2023-05-07T00:04:47;13.87;;;8.80;;
17604;SDS011;8921;50.964;6.800;2023-05-07T00:07:16;10.50;;;7.20;;
17604;SDS011;8921;50.964;6.800;2023-05-07T00:09:44;9.80;;;8.30;;
17604;SDS011;8921;50.964;6.800;2023-05-07T00:12:12;10.40;;;7.50;;
17604;SDS011;8921;50.964;6.800;2023-05-07T00:14:40;9.77;;;7.17;;
17604;SDS011;8921;50.964;6.800;2023-05-07T00:17:09;9.83;;;7.80;;
17604;SDS011;8921;50.964;6.800;2023-05-07T00:19:37;10.27;;;7.53;;
17604;SDS011;8921;50.964;6.800;2023-05-07T00:22:08;12.17;;;8.50;;
17604;SDS011;8921;50.964;6.800;2023-05-07T00:24:34;11.57;;;7.40;;
17604;SDS011;8921;50.964;6.800;2023-05-07T00:27:02;13.27;;;7.83;;
17604;SDS011;8921;50.964;6.800;2023-05-07T00:29:30;14.00;;;8.73;;
17604;SDS011;8921;50.964;6.800;2023-05-07T00:31:58;12.60;;;7.10;;
17604;SDS011;8921;50.964;6.800;2023-05-07T00:34:27;9.73;;;7.30;;
17604;SDS011;8921;50.964;6.800;2023-05-07T00:36:55;10.87;;;7.37;;
17604;SDS011;8921;50.964;6.800;2023-05-07T00:39:23;9.83;;;7.00;;
17604;SDS011;8921;50.964;6.800;2023-05-07T00:41:51;13.33;;;7.33;;
17604;SDS011;8921;50.964;6.800;2023-05-07T00:44:20;9.53;;;6.83;;
17604;SDS011;8921;50.964;6.800;2023-05-07T00:46:48;13.60;;;7.90;;
17604;SDS011;8921;50.964;6.800;2023-05-07T00:49:16;8.90;;;6.63;;
17604;SDS011;8921;50.964;6.800;2023-05-07T00:51:45;9.53;;;6.63;;
17604;SDS011;8921;50.964;6.800;2023-05-07T00:54:13;9.20;;;7.23;;
17604;SDS011;8921;50.964;6.800;2023-05-07T00:56:41;11.53;;;7.00;;
17604;SDS011;8921;50.964;6.800;2023-05-07T00:59:09;8.43;;;6.43;;
17604;SDS011;8921;50.964;6.800;2023-05-07T01:01:38;8.87;;;6.17;;
17604;SDS011;8921;50.964;6.800;2023-05-07T01:04:06;9.20;;;6.90;;
17604;SDS011;8921;50.964;6.800;2023-05-07T01:06:34;9.40;;;6.20;;
17604;SDS011;8921;50.964;6.800;2023-05-07T01:09:02;9.00;;;6.67;;
17604;SDS011;8921;50.964;6.800;2023-05-07T01:11:31;12.80;;;6.60;;
17604;SDS011;8921;50.964;6.800;2023-05-07T01:13:59;9.57;;;6.37;;
17604;SDS011;8921;50.964;6.800;2023-05-07T01:16:27;8.20;;;6.00;;
17604;SDS011;8921;50.964;6.800;2023-05-07T01:18:55;9.80;;;6.50;;
17604;SDS011;8921;50.964;6.800;2023-05-07T01:21:24;8.77;;;6.40;;
17604;SDS011;8921;50.964;6.800;2023-05-07T01:23:52;7.77;;;6.10;;
17604;SDS011;8921;50.964;6.800;2023-05-07T01:26:20;9.77;;;6.70;;
17604;SDS011;8921;50.964;6.800;2023-05-07T01:28:48;7.60;;;6.20;;
17604;SDS011;8921;50.964;6.800;2023-05-07T01:31:17;7.67;;;5.40;;
17604;SDS011;8921;50.964;6.800;2023-05-07T01:33:45;7.93;;;5.80;;
17604;SDS011;8921;50.964;6.800;2023-05-07T01:36:13;10.10;;;5.70;;
17604;SDS011;8921;50.964;6.800;2023-05-07T01:38:41;8.50;;;6.00;;
17604;SDS011;8921;50.964;6.800;2023-05-07T01:41:10;10.60;;;6.03;;
17604;SDS011;8921;50.964;6.800;2023-05-07T01:43:39;9.20;;;6.40;;
17604;SDS011;8921;50.964;6.800;2023-05-07T01:46:06;10.47;;;5.50;;
17604;SDS011;8921;50.964;6.800;2023-05-07T01:48:34;10.90;;;6.03;;
17604;SDS011;8921;50.964;6.800;2023-05-07T01:51:03;8.80;;;6.10;;
17604;SDS011;8921;50.964;6.800;2023-05-07T01:53:37;11.73;;;8.20;;
17604;SDS011;8921;50.964;6.800;2023-05-07T01:56:05;9.13;;;5.90;;
17604;SDS011;8921;50.964;6.800;2023-05-07T01:58:34;10.90;;;6.53;;
17604;SDS011;8921;50.964;6.800;2023-05-07T02:01:02;8.67;;;5.73;;
17604;SDS011;8921;50.964;6.800;2023-05-07T02:03:30;10.40;;;5.80;;
17604;SDS011;8921;50.964;6.800;2023-05-07T02:05:59;8.90;;;5.20;;
17604;SDS011;8921;50.964;6.800;2023-05-07T02:08:27;7.90;;;5.20;;
17604;SDS011;8921;50.964;6.800;2023-05-07T02:10:55;9.47;;;6.70;;
17604;SDS011;8921;50.964;6.800;2023-05-07T02:13:23;7.50;;;5.60;;
17604;SDS011;8921;50.964;6.800;2023-05-07T02:15:52;7.43;;;5.30;;
17604;SDS011;8921;50.964;6.800;2023-05-07T02:18:20;8.50;;;5.30;;
17604;SDS011;8921;50.964;6.800;2023-05-07T02:20:48;8.73;;;5.10;;
17604;SDS011;8921;50.964;6.800;2023-05-07T02:23:17;9.73;;;5.37;;
17604;SDS011;8921;50.964;6.800;2023-05-07T02:25:45;9.87;;;5.50;;
17604;SDS011;8921;50.964;6.800;2023-05-07T02:28:13;13.63;;;6.20;;
17604;SDS011;8921;50.964;6.800;2023-05-07T02:30:41;7.27;;;5.10;;
17604;SDS011;8921;50.964;6.800;2023-05-07T02:33:10;7.47;;;4.80;;
17604;SDS011;8921;50.964;6.800;2023-05-07T02:35:38;9.63;;;5.47;;
17604;SDS011;8921;50.964;6.800;2023-05-07T02:38:06;7.57;;;5.53;;
17604;SDS011;8921;50.964;6.800;2023-05-07T02:40:34;8.17;;;5.37;;
17604;SDS011;8921;50.964;6.800;2023-05-07T02:43:03;10.10;;;6.17;;
17604;SDS011;8921;50.964;6.800;2023-05-07T02:45:31;8.00;;;6.13;;
17604;SDS011;8921;50.964;6.800;2023-05-07T02:47:59;10.10;;;6.40;;
17604;SDS011;8921;50.964;6.800;2023-05-07T02:50:27;9.60;;;6.77;;
17604;SDS011;8921;50.964;6.800;2023-05-07T02:52:56;8.77;;;6.30;;
17604;SDS011;8921;50.964;6.800;2023-05-07T02:55:24;6.83;;;5.50;;
17604;SDS011;8921;50.964;6.800;2023-05-07T02:57:52;9.40;;;6.27;;
17604;SDS011;8921;50.964;6.800;2023-05-07T03:00:21;7.73;;;5.50;;
17604;SDS011;8921;50.964;6.800;2023-05-07T03:02:49;9.27;;;5.70;;
17604;SDS011;8921;50.964;6.800;2023-05-07T03:05:17;12.90;;;9.20;;
17604;SDS011;8921;50.964;6.800;2023-05-07T03:07:45;11.33;;;7.07;;
17604;SDS011;8921;50.964;6.800;2023-05-07T03:10:14;8.10;;;5.20;;
17604;SDS011;8921;50.964;6.800;2023-05-07T03:12:42;7.97;;;5.60;;
17604;SDS011;8921;50.964;6.800;2023-05-07T03:15:10;7.90;;;5.53;;
17604;SDS011;8921;50.964;6.800;2023-05-07T03:17:38;8.73;;;5.67;;
17604;SDS011;8921;50.964;6.800;2023-05-07T03:20:07;8.40;;;5.60;;
17604;SDS011;8921;50.964;6.800;2023-05-07T03:22:35;8.60;;;5.87;;
17604;SDS011;8921;50.964;6.800;2023-05-07T03:25:04;10.23;;;6.00;;
17604;SDS011;8921;50.964;6.800;2023-05-07T03:27:32;9.43;;;5.63;;
17604;SDS011;8921;50.964;6.800;2023-05-07T03:30:00;6.90;;;4.93;;
17604;SDS011;8921;50.964;6.800;2023-05-07T03:32:29;8.50;;;5.03;;
17604;SDS011;8921;50.964;6.800;2023-05-07T03:34:57;7.93;;;4.70;;
17604;SDS011;8921;50.964;6.800;2023-05-07T03:37:25;11.27;;;4.80;;
17604;SDS011;8921;50.964;6.800;2023-05-07T03:39:53;8.30;;;5.70;;
17604;SDS011;8921;50.964;6.800;2023-05-07T03:42:22;10.50;;;5.87;;
17604;SDS011;8921;50.964;6.800;2023-05-07T03:44:50;8.47;;;4.87;;
17604;SDS011;8921;50.964;6.800;2023-05-07T03:47:18;9.00;;;4.97;;
17604;SDS011;8921;50.964;6.800;2023-05-07T03:49:46;9.17;;;5.17;;
17604;SDS011;8921;50.964;6.800;2023-05-07T03:52:15;8.13;;;5.10;;
17604;SDS011;8921;50.964;6.800;2023-05-07T03:54:43;7.00;;;5.13;;
17604;SDS011;8921;50.964;6.800;2023-05-07T03:57:11;8.73;;;5.50;;
17604;SDS011;8921;50.964;6.800;2023-05-07T03:59:39;8.03;;;5.43;;
17604;SDS011;8921;50.964;6.800;2023-05-07T04:02:08;9.53;;;5.10;;
17604;SDS011;8921;50.964;6.800;2023-05-07T04:04:36;8.67;;;6.00;;
17604;SDS011;8921;50.964;6.800;2023-05-07T04:07:04;11.27;;;6.60;;
17604;SDS011;8921;50.964;6.800;2023-05-07T04:09:32;9.80;;;5.73;;
17604;SDS011;8921;50.964;6.800;2023-05-07T04:12:01;7.70;;;5.83;;
17604;SDS011;8921;50.964;6.800;2023-05-07T04:14:29;7.50;;;5.27;;
17604;SDS011;8921;50.964;6.800;2023-05-07T04:16:58;8.07;;;5.67;;
17604;SDS011;8921;50.964;6.800;2023-05-07T04:19:25;9.90;;;6.73;;
17604;SDS011;8921;50.964;6.800;2023-05-07T04:21:54;10.23;;;5.87;;
17604;SDS011;8921;50.964;6.800;2023-05-07T04:24:22;11.20;;;6.67;;
17604;SDS011;8921;50.964;6.800;2023-05-07T04:26:50;7.93;;;6.10;;
17604;SDS011;8921;50.964;6.800;2023-05-07T04:29:19;8.23;;;5.57;;
17604;SDS011;8921;50.964;6.800;2023-05-07T04:31:47;9.57;;;6.20;;
17604;SDS011;8921;50.964;6.800;2023-05-07T04:34:15;9.03;;;5.50;;
17604;SDS011;8921;50.964;6.800;2023-05-07T04:36:43;8.20;;;5.87;;
17604;SDS011;8921;50.964;6.800;2023-05-07T04:39:12;12.60;;;5.27;;
17604;SDS011;8921;50.964;6.800;2023-05-07T04:41:40;9.00;;;6.67;;
17604;SDS011;8921;50.964;6.800;2023-05-07T04:44:08;8.50;;;6.17;;
17604;SDS011;8921;50.964;6.800;2023-05-07T04:46:37;10.30;;;6.70;;
17604;SDS011;8921;50.964;6.800;2023-05-07T04:49:05;8.23;;;6.07;;
17604;SDS011;8921;50.964;6.800;2023-05-07T04:51:33;8.30;;;5.93;;
17604;SDS011;8921;50.964;6.800;2023-05-07T04:54:01;10.23;;;6.00;;
17604;SDS011;8921;50.964;6.800;2023-05-07T04:56:30;8.00;;;5.80;;
17604;SDS011;8921;50.964;6.800;2023-05-07T04:58:58;9.27;;;6.33;;
17604;SDS011;8921;50.964;6.800;2023-05-07T05:01:26;6.73;;;5.50;;
17604;SDS011;8921;50.964;6.800;2023-05-07T05:03:54;10.13;;;5.40;;
17604;SDS011;8921;50.964;6.800;2023-05-07T05:06:23;10.30;;;5.67;;
17604;SDS011;8921;50.964;6.800;2023-05-07T05:08:51;10.70;;;6.00;;
17604;SDS011;8921;50.964;6.800;2023-05-07T05:11:19;9.80;;;5.50;;
17604;SDS011;8921;50.964;6.800;2023-05-07T05:13:47;15.40;;;6.20;;
17604;SDS011;8921;50.964;6.800;2023-05-07T05:16:16;13.80;;;6.40;;
17604;SDS011;8921;50.964;6.800;2023-05-07T05:18:44;12.03;;;6.13;;
17604;SDS011;8921;50.964;6.800;2023-05-07T05:21:12;7.80;;;5.83;;
17604;SDS011;8921;50.964;6.800;2023-05-07T05:23:41;9.90;;;6.63;;
17604;SDS011;8921;50.964;6.800;2023-05-07T05:26:09;10.03;;;6.20;;
17604;SDS011;8921;50.964;6.800;2023-05-07T05:28:37;9.87;;;5.87;;
17604;SDS011;8921;50.964;6.800;2023-05-07T05:31:05;11.20;;;7.40;;
17604;SDS011;8921;50.964;6.800;2023-05-07T05:33:34;8.37;;;5.83;;
17604;SDS011;8921;50.964;6.800;2023-05-07T05:36:02;9.97;;;5.70;;
17604;SDS011;8921;50.964;6.800;2023-05-07T05:38:30;11.10;;;7.37;;
17604;SDS011;8921;50.964;6.800;2023-05-07T05:40:59;10.00;;;6.00;;
17604;SDS011;8921;50.964;6.800;2023-05-07T05:43:27;7.83;;;5.83;;
17604;SDS011;8921;50.964;6.800;2023-05-07T05:45:55;7.43;;;6.13;;
17604;SDS011;8921;50.964;6.800;2023-05-07T05:48:23;11.33;;;5.77;;
17604;SDS011;8921;50.964;6.800;2023-05-07T05:50:52;8.90;;;5.43;;
17604;SDS011;8921;50.964;6.800;2023-05-07T05:53:20;9.27;;;5.10;;
17604;SDS011;8921;50.964;6.800;2023-05-07T05:55:48;9.53;;;5.60;;
17604;SDS011;8921;50.964;6.800;2023-05-07T05:58:16;9.70;;;5.47;;
17604;SDS011;8921;50.964;6.800;2023-05-07T06:00:45;7.80;;;5.47;;
17604;SDS011;8921;50.964;6.800;2023-05-07T06:03:13;14.03;;;5.20;;
17604;SDS011;8921;50.964;6.800;2023-05-07T06:05:41;7.10;;;4.53;;
17604;SDS011;8921;50.964;6.800;2023-05-07T06:08:09;10.27;;;6.07;;
17604;SDS011;8921;50.964;6.800;2023-05-07T06:10:38;7.07;;;5.23;;
17604;SDS011;8921;50.964;6.800;2023-05-07T06:13:06;7.70;;;4.63;;
17604;SDS011;8921;50.964;6.800;2023-05-07T06:15:34;9.47;;;5.23;;
17604;SDS011;8921;50.964;6.800;2023-05-07T06:18:02;7.27;;;5.20;;
17604;SDS011;8921;50.964;6.800;2023-05-07T06:20:31;7.47;;;5.40;;
17604;SDS011;8921;50.964;6.800;2023-05-07T06:22:59;7.07;;;4.67;;
17604;SDS011;8921;50.964;6.800;2023-05-07T06:25:27;9.13;;;4.67;;
17604;SDS011;8921;50.964;6.800;2023-05-07T06:27:55;7.63;;;4.90;;
17604;SDS011;8921;50.964;6.800;2023-05-07T06:30:24;9.10;;;4.60;;
17604;SDS011;8921;50.964;6.800;2023-05-07T06:32:55;6.63;;;4.33;;
17604;SDS011;8921;50.964;6.800;2023-05-07T06:35:24;9.77;;;3.80;;
17604;SDS011;8921;50.964;6.800;2023-05-07T06:37:52;8.43;;;3.80;;
17604;SDS011;8921;50.964;6.800;2023-05-07T06:40:20;4.77;;;3.70;;
17604;SDS011;8921;50.964;6.800;2023-05-07T06:42:48;5.50;;;3.60;;
17604;SDS011;8921;50.964;6.800;2023-05-07T06:45:17;6.20;;;3.77;;
17604;SDS011;8921;50.964;6.800;2023-05-07T06:47:45;6.20;;;3.53;;
17604;SDS011;8921;50.964;6.800;2023-05-07T06:50:13;5.23;;;3.03;;
17604;SDS011;8921;50.964;6.800;2023-05-07T06:52:42;6.80;;;3.60;;
17604;SDS011;8921;50.964;6.800;2023-05-07T06:55:10;5.73;;;3.30;;
17604;SDS011;8921;50.964;6.800;2023-05-07T06:57:38;8.13;;;3.60;;
17604;SDS011;8921;50.964;6.800;2023-05-07T07:00:07;5.20;;;2.97;;
17604;SDS011;8921;50.964;6.800;2023-05-07T07:02:35;6.63;;;3.37;;
17604;SDS011;8921;50.964;6.800;2023-05-07T07:05:04;7.40;;;2.60;;
17604;SDS011;8921;50.964;6.800;2023-05-07T07:07:32;7.30;;;3.00;;
17604;SDS011;8921;50.964;6.800;2023-05-07T07:10:00;5.20;;;2.63;;
17604;SDS011;8921;50.964;6.800;2023-05-07T07:12:29;10.77;;;2.40;;
17604;SDS011;8921;50.964;6.800;2023-05-07T07:14:57;5.83;;;2.60;;
17604;SDS011;8921;50.964;6.800;2023-05-07T07:17:25;5.00;;;3.00;;
17604;SDS011;8921;50.964;6.800;2023-05-07T07:19:54;6.13;;;2.50;;
17604;SDS011;8921;50.964;6.800;2023-05-07T07:22:22;5.53;;;2.73;;
17604;SDS011;8921;50.964;6.800;2023-05-07T07:24:50;6.87;;;3.07;;
17604;SDS011;8921;50.964;6.800;2023-05-07T07:27:18;5.80;;;2.93;;
17604;SDS011;8921;50.964;6.800;2023-05-07T07:29:47;5.70;;;2.30;;
17604;SDS011;8921;50.964;6.800;2023-05-07T07:32:15;4.10;;;2.00;;
17604;SDS011;8921;50.964;6.800;2023-05-07T07:34:43;5.30;;;2.77;;
17604;SDS011;8921;50.964;6.800;2023-05-07T07:37:12;9.43;;;3.63;;
17604;SDS011;8921;50.964;6.800;2023-05-07T07:39:40;5.33;;;2.90;;
17604;SDS011;8921;50.964;6.800;2023-05-07T07:42:08;5.23;;;2.90;;
17604;SDS011;8921;50.964;6.800;2023-05-07T07:44:36;5.37;;;2.30;;
17604;SDS011;8921;50.964;6.800;2023-05-07T07:47:05;4.37;;;2.47;;
17604;SDS011;8921;50.964;6.800;2023-05-07T07:49:33;5.17;;;2.50;;
17604;SDS011;8921;50.964;6.800;2023-05-07T07:52:01;6.27;;;3.70;;
17604;SDS011;8921;50.964;6.800;2023-05-07T07:54:29;6.10;;;2.70;;
17604;SDS011;8921;50.964;6.800;2023-05-07T07:56:58;4.33;;;1.87;;
17604;SDS011;8921;50.964;6.800;2023-05-07T07:59:26;4.37;;;2.40;;
17604;SDS011;8921;50.964;6.800;2023-05-07T08:01:54;5.37;;;1.83;;
17604;SDS011;8921;50.964;6.800;2023-05-07T08:04:22;5.33;;;2.30;;
17604;SDS011;8921;50.964;6.800;2023-05-07T08:06:51;5.83;;;2.27;;
17604;SDS011;8921;50.964;6.800;2023-05-07T08:09:19;5.80;;;2.50;;
17604;SDS011;8921;50.964;6.800;2023-05-07T08:11:47;6.40;;;2.90;;
17604;SDS011;8921;50.964;6.800;2023-05-07T08:14:15;4.57;;;2.07;;
17604;SDS011;8921;50.964;6.800;2023-05-07T08:16:44;6.80;;;2.63;;
17604;SDS011;8921;50.964;6.800;2023-05-07T08:19:12;6.33;;;2.90;;
17604;SDS011;8921;50.964;6.800;2023-05-07T08:21:40;8.07;;;2.70;;
17604;SDS011;8921;50.964;6.800;2023-05-07T08:24:09;4.50;;;2.20;;
17604;SDS011;8921;50.964;6.800;2023-05-07T08:26:37;7.30;;;2.50;;
17604;SDS011;8921;50.964;6.800;2023-05-07T08:29:05;7.33;;;2.70;;
17604;SDS011;8921;50.964;6.800;2023-05-07T08:31:33;4.67;;;2.30;;
17604;SDS011;8921;50.964;6.800;2023-05-07T08:34:02;7.73;;;2.77;;
17604;SDS011;8921;50.964;6.800;2023-05-07T08:36:30;4.87;;;2.30;;
17604;SDS011;8921;50.964;6.800;2023-05-07T08:38:59;5.40;;;2.30;;
17604;SDS011;8921;50.964;6.800;2023-05-07T08:41:27;8.23;;;2.50;;
17604;SDS011;8921;50.964;6.800;2023-05-07T08:43:55;6.73;;;2.60;;
17604;SDS011;8921;50.964;6.800;2023-05-07T08:46:23;4.43;;;2.50;;
17604;SDS011;8921;50.964;6.800;2023-05-07T08:48:51;4.57;;;2.50;;
17604;SDS011;8921;50.964;6.800;2023-05-07T08:51:20;5.80;;;2.37;;
17604;SDS011;8921;50.964;6.800;2023-05-07T08:53:48;5.37;;;2.10;;
17604;SDS011;8921;50.964;6.800;2023-05-07T08:56:17;4.73;;;2.37;;
17604;SDS011;8921;50.964;6.800;2023-05-07T08:58:45;5.00;;;2.70;;
17604;SDS011;8921;50.964;6.800;2023-05-07T09:01:14;4.83;;;2.40;;
17604;SDS011;8921;50.964;6.800;2023-05-07T09:03:42;6.47;;;2.60;;
17604;SDS011;8921;50.964;6.800;2023-05-07T09:06:09;6.37;;;2.57;;
17604;SDS011;8921;50.964;6.800;2023-05-07T09:08:38;4.87;;;2.07;;
17604;SDS011;8921;50.964;6.800;2023-05-07T09:11:06;6.00;;;2.30;;
17604;SDS011;8921;50.964;6.800;2023-05-07T09:13:34;6.00;;;2.07;;
17604;SDS011;8921;50.964;6.800;2023-05-07T09:16:12;6.07;;;2.63;;
17604;SDS011;8921;50.964;6.800;2023-05-07T09:18:41;5.00;;;2.40;;
17604;SDS011;8921;50.964;6.800;2023-05-07T09:21:15;5.20;;;2.50;;
17604;SDS011;8921;50.964;6.800;2023-05-07T09:23:40;7.30;;;2.30;;
17604;SDS011;8921;50.964;6.800;2023-05-07T09:26:08;6.27;;;2.50;;
17604;SDS011;8921;50.964;6.800;2023-05-07T09:28:37;5.90;;;2.73;;
17604;SDS011;8921;50.964;6.800;2023-05-07T09:31:04;6.50;;;2.80;;
17604;SDS011;8921;50.964;6.800;2023-05-07T09:33:33;6.60;;;2.40;;
17604;SDS011;8921;50.964;6.800;2023-05-07T09:36:04;4.43;;;2.20;;
17604;SDS011;8921;50.964;6.800;2023-05-07T09:38:32;6.17;;;2.30;;
17604;SDS011;8921;50.964;6.800;2023-05-07T09:41:10;8.97;;;2.60;;
17604;SDS011;8921;50.964;6.800;2023-05-07T09:43:38;5.23;;;2.43;;
17604;SDS011;8921;50.964;6.800;2023-05-07T09:48:35;9.50;;;2.27;;
17604;SDS011;8921;50.964;6.800;2023-05-07T09:51:02;4.67;;;2.33;;
17604;SDS011;8921;50.964;6.800;2023-05-07T09:53:30;4.80;;;2.80;;
17604;SDS011;8921;50.964;6.800;2023-05-07T09:55:59;6.97;;;3.80;;
17604;SDS011;8921;50.964;6.800;2023-05-07T09:58:27;6.63;;;2.23;;
17604;SDS011;8921;50.964;6.800;2023-05-07T10:00:55;4.10;;;1.90;;
17604;SDS011;8921;50.964;6.800;2023-05-07T10:03:24;5.40;;;2.70;;
17604;SDS011;8921;50.964;6.800;2023-05-07T10:05:52;8.20;;;2.60;;
17604;SDS011;8921;50.964;6.800;2023-05-07T10:08:20;5.10;;;2.10;;
17604;SDS011;8921;50.964;6.800;2023-05-07T10:10:48;4.60;;;2.30;;
17604;SDS011;8921;50.964;6.800;2023-05-07T10:13:18;5.43;;;2.20;;
17604;SDS011;8921;50.964;6.800;2023-05-07T10:15:45;5.87;;;2.60;;
17604;SDS011;8921;50.964;6.800;2023-05-07T10:18:13;6.57;;;2.20;;
17604;SDS011;8921;50.964;6.800;2023-05-07T10:20:41;6.03;;;2.60;;
17604;SDS011;8921;50.964;6.800;2023-05-07T10:23:10;5.53;;;2.80;;
17604;SDS011;8921;50.964;6.800;2023-05-07T10:25:38;5.10;;;2.60;;
17604;SDS011;8921;50.964;6.800;2023-05-07T10:28:07;3.97;;;1.80;;
17604;SDS011;8921;50.964;6.800;2023-05-07T10:33:15;5.13;;;2.40;;
17604;SDS011;8921;50.964;6.800;2023-05-07T10:35:43;5.60;;;2.00;;
17604;SDS011;8921;50.964;6.800;2023-05-07T10:38:11;5.90;;;2.10;;
17604;SDS011;8921;50.964;6.800;2023-05-07T10:40:39;4.50;;;1.93;;
17604;SDS011;8921;50.964;6.800;2023-05-07T10:43:08;4.40;;;2.10;;
17604;SDS011;8921;50.964;6.800;2023-05-07T10:45:36;5.30;;;2.27;;
17604;SDS011;8921;50.964;6.800;2023-05-07T10:48:07;8.77;;;2.90;;
17604;SDS011;8921;50.964;6.800;2023-05-07T10:50:44;4.70;;;2.27;;
17604;SDS011;8921;50.964;6.800;2023-05-07T10:55:48;3.87;;;1.90;;
17604;SDS011;8921;50.964;6.800;2023-05-07T11:00:49;5.10;;;2.67;;
17604;SDS011;8921;50.964;6.800;2023-05-07T11:03:17;5.37;;;1.83;;
17604;SDS011;8921;50.964;6.800;2023-05-07T11:05:45;4.60;;;2.10;;
17604;SDS011;8921;50.964;6.800;2023-05-07T11:08:14;4.00;;;1.70;;
17604;SDS011;8921;50.964;6.800;2023-05-07T11:10:49;4.90;;;2.20;;
17604;SDS011;8921;50.964;6.800;2023-05-07T11:13:16;5.77;;;1.77;;
17604;SDS011;8921;50.964;6.800;2023-05-07T11:15:45;5.53;;;1.90;;
17604;SDS011;8921;50.964;6.800;2023-05-07T11:18:13;3.97;;;1.67;;
17604;SDS011;8921;50.964;6.800;2023-05-07T11:26:04;4.00;;;1.90;;
17604;SDS011;8921;50.964;6.800;2023-05-07T11:28:38;4.10;;;1.90;;
17604;SDS011;8921;50.964;6.800;2023-05-07T11:31:06;5.90;;;1.90;;
17604;SDS011;8921;50.964;6.800;2023-05-07T11:33:34;4.60;;;1.60;;
17604;SDS011;8921;50.964;6.800;2023-05-07T11:36:03;4.60;;;2.00;;
17604;SDS011;8921;50.964;6.800;2023-05-07T11:38:34;4.10;;;1.70;;
17604;SDS011;8921;50.964;6.800;2023-05-07T11:40:59;4.97;;;1.90;;
17604;SDS011;8921;50.964;6.800;2023-05-07T11:43:27;6.13;;;2.47;;
17604;SDS011;8921;50.964;6.800;2023-05-07T11:45:58;3.30;;;1.57;;
17604;SDS011;8921;50.964;6.800;2023-05-07T11:48:24;4.20;;;1.83;;
17604;SDS011;8921;50.964;6.800;2023-05-07T11:53:26;5.17;;;1.93;;
17604;SDS011;8921;50.964;6.800;2023-05-07T11:55:55;3.93;;;1.67;;
17604;SDS011;8921;50.964;6.800;2023-05-07T11:58:23;5.00;;;1.80;;
17604;SDS011;8921;50.964;6.800;2023-05-07T12:00:51;5.37;;;1.90;;
17604;SDS011;8921;50.964;6.800;2023-05-07T12:03:20;4.30;;;1.83;;
17604;SDS011;8921;50.964;6.800;2023-05-07T12:05:47;9.43;;;2.33;;
17604;SDS011;8921;50.964;6.800;2023-05-07T12:08:16;4.27;;;2.00;;
17604;SDS011;8921;50.964;6.800;2023-05-07T12:10:44;5.10;;;2.33;;
17604;SDS011;8921;50.964;6.800;2023-05-07T12:13:18;4.83;;;2.37;;
17604;SDS011;8921;50.964;6.800;2023-05-07T12:15:46;5.60;;;1.80;;
17604;SDS011;8921;50.964;6.800;2023-05-07T12:18:15;6.27;;;2.63;;
17604;SDS011;8921;50.964;6.800;2023-05-07T12:20:43;4.00;;;1.90;;
17604;SDS011;8921;50.964;6.800;2023-05-07T12:23:11;4.20;;;2.07;;
17604;SDS011;8921;50.964;6.800;2023-05-07T12:25:40;4.27;;;2.17;;
17604;SDS011;8921;50.964;6.800;2023-05-07T12:28:14;4.67;;;1.80;;
17604;SDS011;8921;50.964;6.800;2023-05-07T12:30:43;7.70;;;2.30;;
17604;SDS011;8921;50.964;6.800;2023-05-07T12:33:10;4.00;;;1.60;;
17604;SDS011;8921;50.964;6.800;2023-05-07T12:35:39;5.50;;;3.40;;
17604;SDS011;8921;50.964;6.800;2023-05-07T12:38:07;3.80;;;1.90;;
17604;SDS011;8921;50.964;6.800;2023-05-07T12:40:41;5.27;;;1.90;;
17604;SDS011;8921;50.964;6.800;2023-05-07T12:43:06;5.33;;;2.13;;
17604;SDS011;8921;50.964;6.800;2023-05-07T12:45:37;8.17;;;1.80;;
17604;SDS011;8921;50.964;6.800;2023-05-07T12:48:05;7.37;;;1.90;;
17604;SDS011;8921;50.964;6.800;2023-05-07T12:50:34;6.03;;;2.43;;
17604;SDS011;8921;50.964;6.800;2023-05-07T12:53:05;4.77;;;2.00;;
17604;SDS011;8921;50.964;6.800;2023-05-07T12:55:43;5.50;;;2.23;;
17604;SDS011;8921;50.964;6.800;2023-05-07T12:58:20;5.53;;;1.80;;
17604;SDS011;8921;50.964;6.800;2023-05-07T13:00:44;3.93;;;1.73;;
17604;SDS011;8921;50.964;6.800;2023-05-07T13:03:15;4.63;;;2.20;;
17604;SDS011;8921;50.964;6.800;2023-05-07T13:05:41;4.43;;;1.90;;
17604;SDS011;8921;50.964;6.800;2023-05-07T13:08:09;5.00;;;2.37;;
17604;SDS011;8921;50.964;6.800;2023-05-07T13:10:37;4.00;;;1.93;;
17604;SDS011;8921;50.964;6.800;2023-05-07T13:13:05;5.87;;;2.37;;
17604;SDS011;8921;50.964;6.800;2023-05-07T13:15:34;4.90;;;2.33;;
17604;SDS011;8921;50.964;6.800;2023-05-07T13:18:02;5.23;;;2.53;;
17604;SDS011;8921;50.964;6.800;2023-05-07T13:20:30;11.13;;;2.20;;
17604;SDS011;8921;50.964;6.800;2023-05-07T13:22:59;7.13;;;3.13;;
17604;SDS011;8921;50.964;6.800;2023-05-07T13:25:27;9.90;;;5.40;;
17604;SDS011;8921;50.964;6.800;2023-05-07T13:27:56;11.83;;;8.30;;
17604;SDS011;8921;50.964;6.800;2023-05-07T13:30:23;7.23;;;3.30;;
17604;SDS011;8921;50.964;6.800;2023-05-07T13:32:53;8.37;;;4.97;;
17604;SDS011;8921;50.964;6.800;2023-05-07T13:35:20;13.70;;;7.63;;
17604;SDS011;8921;50.964;6.800;2023-05-07T13:37:48;9.27;;;2.83;;
17604;SDS011;8921;50.964;6.800;2023-05-07T13:40:17;7.37;;;3.20;;
17604;SDS011;8921;50.964;6.800;2023-05-07T13:42:45;22.90;;;12.37;;
17604;SDS011;8921;50.964;6.800;2023-05-07T13:45:13;6.40;;;3.60;;
17604;SDS011;8921;50.964;6.800;2023-05-07T13:47:42;4.43;;;2.50;;
17604;SDS011;8921;50.964;6.800;2023-05-07T13:50:10;5.13;;;2.43;;
17604;SDS011;8921;50.964;6.800;2023-05-07T13:52:39;6.33;;;2.93;;
17604;SDS011;8921;50.964;6.800;2023-05-07T13:55:06;8.80;;;2.67;;
17604;SDS011;8921;50.964;6.800;2023-05-07T13:57:35;4.93;;;2.57;;
17604;SDS011;8921;50.964;6.800;2023-05-07T14:00:03;5.63;;;2.63;;
17604;SDS011;8921;50.964;6.800;2023-05-07T14:02:31;7.37;;;3.43;;
17604;SDS011;8921;50.964;6.800;2023-05-07T14:05:00;4.83;;;2.70;;
17604;SDS011;8921;50.964;6.800;2023-05-07T14:07:28;6.93;;;2.73;;
17604;SDS011;8921;50.964;6.800;2023-05-07T14:09:57;5.67;;;2.30;;
17604;SDS011;8921;50.964;6.800;2023-05-07T14:12:25;6.67;;;3.00;;
17604;SDS011;8921;50.964;6.800;2023-05-07T14:14:53;6.33;;;2.83;;
17604;SDS011;8921;50.964;6.800;2023-05-07T14:17:21;6.03;;;2.60;;
17604;SDS011;8921;50.964;6.800;2023-05-07T14:19:50;6.83;;;3.53;;
17604;SDS011;8921;50.964;6.800;2023-05-07T14:22:18;5.80;;;3.47;;
17604;SDS011;8921;50.964;6.800;2023-05-07T14:24:46;8.53;;;3.57;;
17604;SDS011;8921;50.964;6.800;2023-05-07T14:27:14;7.97;;;4.30;;
17604;SDS011;8921;50.964;6.800;2023-05-07T14:29:43;10.80;;;4.47;;
17604;SDS011;8921;50.964;6.800;2023-05-07T14:32:11;11.90;;;4.77;;
17604;SDS011;8921;50.964;6.800;2023-05-07T14:34:39;8.40;;;4.40;;
17604;SDS011;8921;50.964;6.800;2023-05-07T14:37:07;7.63;;;4.00;;
17604;SDS011;8921;50.964;6.800;2023-05-07T14:39:36;6.00;;;3.90;;
17604;SDS011;8921;50.964;6.800;2023-05-07T14:42:04;7.10;;;3.60;;
17604;SDS011;8921;50.964;6.800;2023-05-07T14:44:32;5.97;;;3.03;;
17604;SDS011;8921;50.964;6.800;2023-05-07T14:47:00;4.53;;;2.60;;
17604;SDS011;8921;50.964;6.800;2023-05-07T14:49:29;6.10;;;2.40;;
17604;SDS011;8921;50.964;6.800;2023-05-07T14:51:57;5.60;;;2.60;;
17604;SDS011;8921;50.964;6.800;2023-05-07T14:54:25;5.27;;;2.50;;
17604;SDS011;8921;50.964;6.800;2023-05-07T14:56:54;4.00;;;1.83;;
17604;SDS011;8921;50.964;6.800;2023-05-07T14:59:22;5.67;;;2.97;;
17604;SDS011;8921;50.964;6.800;2023-05-07T15:01:50;4.20;;;2.00;;
17604;SDS011;8921;50.964;6.800;2023-05-07T15:04:18;4.50;;;2.00;;
17604;SDS011;8921;50.964;6.800;2023-05-07T15:06:47;6.80;;;2.17;;
17604;SDS011;8921;50.964;6.800;2023-05-07T15:09:15;3.90;;;2.17;;
17604;SDS011;8921;50.964;6.800;2023-05-07T15:11:43;4.90;;;2.17;;
17604;SDS011;8921;50.964;6.800;2023-05-07T15:14:11;6.13;;;2.73;;
17604;SDS011;8921;50.964;6.800;2023-05-07T15:16:40;5.90;;;2.70;;
17604;SDS011;8921;50.964;6.800;2023-05-07T15:19:08;4.50;;;2.50;;
17604;SDS011;8921;50.964;6.800;2023-05-07T15:21:36;5.50;;;2.53;;
17604;SDS011;8921;50.964;6.800;2023-05-07T15:24:05;5.13;;;2.70;;
17604;SDS011;8921;50.964;6.800;2023-05-07T15:26:33;8.37;;;4.33;;